createdAt,value
2019-05-31T00:00:19.318Z,18.31
2019-05-31T00:01:19.828Z,18.29
2019-05-31T00:02:19.828Z,18.23
2019-05-31T00:03:19.607Z,18.26
2019-05-31T00:04:19.563Z,18.31
2019-05-31T00:05:19.810Z,18.23
2019-05-31T00:06:19.809Z,18.26
2019-05-31T00:07:19.579Z,18.2
2019-05-31T00:08:19.566Z,18.22
2019-05-31T00:09:19.818Z,18.18
2019-05-31T00:10:19.573Z,18.11
2019-05-31T00:11:19.566Z,18.18
2019-05-31T00:12:19.566Z,18.13
2019-05-31T00:13:19.833Z,18.15
2019-05-31T00:14:25.291Z,18.11
2019-05-31T00:15:19.810Z,18.18
2019-05-31T00:16:19.568Z,18.19
2019-05-31T00:17:19.817Z,18.18
2019-05-31T00:18:19.321Z,18.03
2019-05-31T00:19:19.815Z,18.04
2019-05-31T00:20:19.594Z,18.08
2019-05-31T00:21:19.589Z,18
2019-05-31T00:22:20.412Z,18.08
2019-05-31T00:23:19.573Z,18.08
2019-05-31T00:24:19.580Z,18.03
2019-05-31T00:25:19.806Z,18.07
2019-05-31T00:26:19.581Z,18.05
2019-05-31T00:27:19.828Z,18.07
2019-05-31T00:28:19.569Z,18.15
2019-05-31T00:29:19.832Z,18.1
2019-05-31T00:30:19.792Z,18.11
2019-05-31T00:31:19.800Z,18.01
2019-05-31T00:32:19.321Z,18.08
2019-05-31T00:33:19.556Z,18.03
2019-05-31T00:34:19.822Z,18.01
2019-05-31T00:35:19.553Z,18.07
2019-05-31T00:36:19.601Z,18.07
2019-05-31T00:37:19.590Z,18.04
2019-05-31T00:38:19.565Z,17.97
2019-05-31T00:39:19.551Z,18
2019-05-31T00:40:23.140Z,17.94
2019-05-31T00:41:19.558Z,17.95
2019-05-31T00:42:19.825Z,18.04
2019-05-31T00:43:19.344Z,17.9
2019-05-31T00:44:34.247Z,17.86
2019-05-31T00:45:19.810Z,17.87
2019-05-31T00:46:19.559Z,17.89
2019-05-31T00:47:19.602Z,17.95
2019-05-31T00:48:19.559Z,17.89
2019-05-31T00:49:19.805Z,17.9
2019-05-31T00:50:19.806Z,17.89
2019-05-31T00:51:19.546Z,17.89
2019-05-31T00:52:19.567Z,17.79
2019-05-31T00:53:19.555Z,17.98
2019-05-31T00:54:19.309Z,17.94
2019-05-31T00:55:19.807Z,17.82
2019-05-31T00:56:19.543Z,17.79
2019-05-31T00:57:19.310Z,17.82
2019-05-31T00:58:19.573Z,17.78
2019-05-31T00:59:19.559Z,17.83
2019-05-31T01:00:19.542Z,17.82
2019-05-31T01:01:19.311Z,17.86
2019-05-31T01:02:19.313Z,17.83
2019-05-31T01:03:19.310Z,17.83
2019-05-31T01:04:19.540Z,17.82
2019-05-31T01:05:19.795Z,17.72
2019-05-31T01:06:19.565Z,17.79
2019-05-31T01:07:19.285Z,17.82
2019-05-31T01:08:19.800Z,17.74
2019-05-31T01:09:19.539Z,17.79
2019-05-31T01:10:19.793Z,17.79
2019-05-31T01:11:19.783Z,17.76
2019-05-31T01:12:19.286Z,17.76
2019-05-31T01:13:19.787Z,17.79
2019-05-31T01:14:19.542Z,17.76
2019-05-31T01:15:19.810Z,17.72
2019-05-31T01:16:19.285Z,17.72
2019-05-31T01:17:19.531Z,17.72
2019-05-31T01:18:19.539Z,17.7
2019-05-31T01:19:19.534Z,17.7
2019-05-31T01:20:19.789Z,17.68
2019-05-31T01:21:19.776Z,17.71
2019-05-31T01:22:19.534Z,17.72
2019-05-31T01:23:19.778Z,17.74
2019-05-31T01:24:19.530Z,17.7
2019-05-31T01:25:19.534Z,17.7
2019-05-31T01:26:19.542Z,17.68
2019-05-31T01:27:19.539Z,17.7
2019-05-31T01:28:19.535Z,17.64
2019-05-31T01:29:19.536Z,17.64
2019-05-31T01:30:19.540Z,17.65
2019-05-31T01:31:19.780Z,17.63
2019-05-31T01:32:19.548Z,17.6
2019-05-31T01:33:19.522Z,17.63
2019-05-31T01:34:19.782Z,17.6
2019-05-31T01:35:19.777Z,17.65
2019-05-31T01:36:19.770Z,17.57
2019-05-31T01:37:19.523Z,17.71
2019-05-31T01:38:19.537Z,17.64
2019-05-31T01:39:19.523Z,17.6
2019-05-31T01:40:19.524Z,17.64
2019-05-31T01:41:19.782Z,17.59
2019-05-31T01:42:19.526Z,17.64
2019-05-31T01:43:20.656Z,17.65
2019-05-31T01:44:19.530Z,17.56
2019-05-31T01:45:23.630Z,17.63
2019-05-31T01:46:19.519Z,17.59
2019-05-31T01:47:20.485Z,17.57
2019-05-31T01:48:19.767Z,17.57
2019-05-31T01:49:19.758Z,17.56
2019-05-31T01:50:19.526Z,17.57
2019-05-31T01:51:19.525Z,17.51
2019-05-31T01:52:19.571Z,17.49
2019-05-31T01:53:19.510Z,17.42
2019-05-31T01:54:19.770Z,17.46
2019-05-31T01:55:19.272Z,17.36
2019-05-31T01:56:19.811Z,17.41
2019-05-31T01:57:19.510Z,17.41
2019-05-31T01:58:19.528Z,17.39
2019-05-31T01:59:19.759Z,17.31
2019-05-31T02:00:19.513Z,17.38
2019-05-31T02:01:19.532Z,17.42
2019-05-31T02:02:19.940Z,17.42
2019-05-31T02:03:20.969Z,17.33
2019-05-31T02:04:21.024Z,17.33
2019-05-31T02:05:19.546Z,17.31
2019-05-31T02:06:23.643Z,17.3
2019-05-31T02:07:21.577Z,17.36
2019-05-31T02:08:19.787Z,17.31
2019-05-31T02:09:19.537Z,17.31
2019-05-31T02:10:19.795Z,17.34
2019-05-31T02:11:19.755Z,17.39
2019-05-31T02:12:19.578Z,17.31
2019-05-31T02:13:20.025Z,17.3
2019-05-31T02:14:19.509Z,17.29
2019-05-31T02:15:35.622Z,17.27
2019-05-31T02:16:19.755Z,17.3
2019-05-31T02:17:20.020Z,17.2
2019-05-31T02:18:19.502Z,17.19
2019-05-31T02:19:20.647Z,17.27
2019-05-31T02:20:19.521Z,17.2
2019-05-31T02:21:19.831Z,17.2
2019-05-31T02:22:19.502Z,17.15
2019-05-31T02:23:20.755Z,17.11
2019-05-31T02:24:19.700Z,17.15
2019-05-31T02:25:20.835Z,17.15
2019-05-31T02:26:19.864Z,17.14
2019-05-31T02:27:20.169Z,17.2
2019-05-31T02:28:20.161Z,17.12
2019-05-31T02:29:20.224Z,17.08
2019-05-31T02:30:24.108Z,17.06
2019-05-31T02:31:21.699Z,17.06
2019-05-31T02:32:22.055Z,17.05
2019-05-31T02:33:22.041Z,17.01
2019-05-31T02:34:21.307Z,17.04
2019-05-31T02:35:22.429Z,17.06
2019-05-31T02:36:21.472Z,17.06
2019-05-31T02:37:21.420Z,17.08
2019-05-31T02:38:22.602Z,17.12
2019-05-31T02:39:22.331Z,17.04
2019-05-31T02:40:23.320Z,17.05
2019-05-31T02:41:22.453Z,17.04
2019-05-31T02:42:20.070Z,17.09
2019-05-31T02:43:22.728Z,16.99
2019-05-31T02:44:21.300Z,17.02
2019-05-31T02:45:22.951Z,17.06
2019-05-31T02:46:19.554Z,17.06
2019-05-31T02:47:21.113Z,17.08
2019-05-31T02:48:21.653Z,17.15
2019-05-31T02:49:21.008Z,17.15
2019-05-31T02:50:22.332Z,17.14
2019-05-31T02:51:21.898Z,17.11
2019-05-31T02:52:22.108Z,17.11
2019-05-31T02:53:21.877Z,17.09
2019-05-31T02:54:21.665Z,17.09
2019-05-31T02:55:21.642Z,17.04
2019-05-31T02:56:21.705Z,17.06
2019-05-31T02:57:22.474Z,17.05
2019-05-31T02:58:23.055Z,17.09
2019-05-31T02:59:21.922Z,17.05
2019-05-31T03:00:24.978Z,17.06
2019-05-31T03:01:23.576Z,17.01
2019-05-31T03:02:22.038Z,17.02
2019-05-31T03:03:22.643Z,16.96
2019-05-31T03:04:22.153Z,16.96
2019-05-31T03:05:23.929Z,16.91
2019-05-31T03:06:23.105Z,16.96
2019-05-31T03:07:22.655Z,16.99
2019-05-31T03:08:22.900Z,16.99
2019-05-31T03:09:22.612Z,16.97
2019-05-31T03:10:24.977Z,17.09
2019-05-31T03:11:23.483Z,17.08
2019-05-31T03:12:23.382Z,17.08
2019-05-31T03:13:23.996Z,17.05
2019-05-31T03:14:21.440Z,17.04
2019-05-31T03:15:26.245Z,17.08
2019-05-31T03:16:22.460Z,17.02
2019-05-31T03:17:21.694Z,16.99
2019-05-31T03:18:22.125Z,16.99
2019-05-31T03:19:22.357Z,17.02
2019-05-31T03:20:23.372Z,16.97
2019-05-31T03:21:25.037Z,16.97
2019-05-31T03:22:23.962Z,16.93
2019-05-31T03:23:23.637Z,16.93
2019-05-31T03:24:24.887Z,16.89
2019-05-31T03:25:24.211Z,16.89
2019-05-31T03:26:23.155Z,16.97
2019-05-31T03:27:23.164Z,16.86
2019-05-31T03:28:24.277Z,16.9
2019-05-31T03:29:23.387Z,16.99
2019-05-31T03:30:37.684Z,16.91
2019-05-31T03:31:37.303Z,16.96
2019-05-31T03:32:38.920Z,17.05
2019-05-31T03:33:37.767Z,17.05
2019-05-31T03:34:35.435Z,17.01
2019-05-31T03:35:39.142Z,17.04
2019-05-31T03:36:37.073Z,17.05
2019-05-31T03:37:23.356Z,17.05
2019-05-31T03:38:23.561Z,17.12
2019-05-31T03:39:23.572Z,17.09
2019-05-31T03:40:27.106Z,17.09
2019-05-31T03:41:23.354Z,17.09
2019-05-31T03:42:23.232Z,17.02
2019-05-31T03:43:24.251Z,17.14
2019-05-31T03:44:23.336Z,17.06
2019-05-31T03:45:24.040Z,17.12
2019-05-31T03:46:44.099Z,17.15
2019-05-31T03:47:23.378Z,17.12
2019-05-31T03:48:23.900Z,17.08
2019-05-31T03:49:21.111Z,17.16
2019-05-31T03:50:24.448Z,17.09
2019-05-31T03:51:24.798Z,17.11
2019-05-31T03:52:22.994Z,17.08
2019-05-31T03:53:24.037Z,17.05
2019-05-31T03:54:23.301Z,17.06
2019-05-31T03:55:24.133Z,17.06
2019-05-31T03:56:23.103Z,17.09
2019-05-31T03:57:23.338Z,17.06
2019-05-31T03:58:25.114Z,17.14
2019-05-31T03:59:21.599Z,17.15
2019-05-31T04:00:23.758Z,17.2
2019-05-31T04:01:21.690Z,17.2
2019-05-31T04:02:23.928Z,17.22
2019-05-31T04:03:23.656Z,17.29
2019-05-31T04:04:22.425Z,17.31
2019-05-31T04:05:23.354Z,17.29
2019-05-31T04:06:21.594Z,17.38
2019-05-31T04:07:22.854Z,17.31
2019-05-31T04:08:22.969Z,17.3
2019-05-31T04:09:23.522Z,17.3
2019-05-31T04:10:24.340Z,17.3
2019-05-31T04:11:23.431Z,17.31
2019-05-31T04:12:24.196Z,17.22
2019-05-31T04:13:25.450Z,17.31
2019-05-31T04:14:25.852Z,17.3
2019-05-31T04:15:23.672Z,17.38
2019-05-31T04:16:24.545Z,17.31
2019-05-31T04:17:23.542Z,17.46
2019-05-31T04:18:34.150Z,17.39
2019-05-31T04:19:19.639Z,17.39
2019-05-31T04:20:26.428Z,17.34
2019-05-31T04:21:23.357Z,17.44
2019-05-31T04:22:21.930Z,17.41
2019-05-31T04:23:24.417Z,17.44
2019-05-31T04:24:23.936Z,17.33
2019-05-31T04:25:25.000Z,17.42
2019-05-31T04:26:23.669Z,17.3
2019-05-31T04:27:22.927Z,17.33
2019-05-31T04:28:25.304Z,17.31
2019-05-31T04:29:24.015Z,17.36
2019-05-31T04:30:24.285Z,17.34
2019-05-31T04:31:24.204Z,17.38
2019-05-31T04:32:24.376Z,17.39
2019-05-31T04:33:22.954Z,17.36
2019-05-31T04:34:24.499Z,17.22
2019-05-31T04:35:24.944Z,17.16
2019-05-31T04:36:24.174Z,17.3
2019-05-31T04:37:24.187Z,17.23
2019-05-31T04:38:24.835Z,17.3
2019-05-31T04:39:24.098Z,17.36
2019-05-31T04:40:26.860Z,17.39
2019-05-31T04:41:26.698Z,17.33
2019-05-31T04:42:25.305Z,17.36
2019-05-31T04:43:24.481Z,17.34
2019-05-31T04:44:24.368Z,17.34
2019-05-31T04:45:24.542Z,17.34
2019-05-31T04:46:22.442Z,17.33
2019-05-31T04:47:24.616Z,17.34
2019-05-31T04:48:24.622Z,17.36
2019-05-31T04:49:22.461Z,17.42
2019-05-31T04:50:24.983Z,17.42
2019-05-31T04:51:24.187Z,17.51
2019-05-31T04:52:25.070Z,17.44
2019-05-31T04:53:24.583Z,17.42
2019-05-31T04:54:24.452Z,17.49
2019-05-31T04:55:22.460Z,17.41
2019-05-31T04:56:24.884Z,17.48
2019-05-31T04:57:24.351Z,17.51
2019-05-31T04:58:28.291Z,17.41
2019-05-31T04:59:22.938Z,17.49
2019-05-31T05:00:26.744Z,17.51
2019-05-31T05:01:24.671Z,17.54
2019-05-31T05:02:22.313Z,17.52
2019-05-31T05:03:29.836Z,17.57
2019-05-31T05:04:22.475Z,17.52
2019-05-31T05:05:24.714Z,17.59
2019-05-31T05:06:20.854Z,17.6
2019-05-31T05:07:22.580Z,17.65
2019-05-31T05:08:23.329Z,17.59
2019-05-31T05:09:27.665Z,17.65
2019-05-31T05:10:22.771Z,17.68
2019-05-31T05:11:22.558Z,17.63
2019-05-31T05:12:22.998Z,17.67
2019-05-31T05:13:22.520Z,17.67
2019-05-31T05:14:22.452Z,17.72
2019-05-31T05:15:22.885Z,17.67
2019-05-31T05:16:21.033Z,17.68
2019-05-31T05:17:43.414Z,17.72
2019-05-31T05:18:25.048Z,17.6
2019-05-31T05:19:20.724Z,17.56
2019-05-31T05:20:20.887Z,17.54
2019-05-31T05:21:20.861Z,17.56
2019-05-31T05:22:20.581Z,17.52
2019-05-31T05:23:19.339Z,17.59
2019-05-31T05:24:22.863Z,17.57
2019-05-31T05:25:19.597Z,17.63
2019-05-31T05:26:19.336Z,17.65
2019-05-31T05:27:19.591Z,17.59
2019-05-31T05:28:19.749Z,17.6
2019-05-31T05:29:19.886Z,17.63
2019-05-31T05:30:20.037Z,17.67
2019-05-31T05:31:20.011Z,17.6
2019-05-31T05:32:20.380Z,17.7
2019-05-31T05:33:20.135Z,17.67
2019-05-31T05:34:22.741Z,17.64
2019-05-31T05:35:20.541Z,17.63
2019-05-31T05:36:20.642Z,17.6
2019-05-31T05:37:20.766Z,17.64
2019-05-31T05:38:20.822Z,17.72
2019-05-31T05:39:20.941Z,17.74
2019-05-31T05:40:20.547Z,17.76
2019-05-31T05:41:19.656Z,17.82
2019-05-31T05:42:20.676Z,17.83
2019-05-31T05:43:19.078Z,17.86
2019-05-31T05:44:19.330Z,17.76
2019-05-31T05:45:19.395Z,17.89
2019-05-31T05:46:19.392Z,17.86
2019-05-31T05:47:19.343Z,18
2019-05-31T05:48:19.455Z,17.9
2019-05-31T05:49:19.433Z,17.97
2019-05-31T05:50:20.034Z,18.04
2019-05-31T05:51:19.823Z,18.04
2019-05-31T05:52:19.801Z,18.03
2019-05-31T05:53:20.065Z,18.13
2019-05-31T05:54:22.659Z,18.05
2019-05-31T05:55:20.417Z,18.15
2019-05-31T05:56:20.477Z,18.1
2019-05-31T05:57:20.577Z,18.15
2019-05-31T05:58:20.776Z,18.11
2019-05-31T05:59:20.905Z,18.22
2019-05-31T06:00:21.271Z,18.22
2019-05-31T06:01:19.344Z,18.26
2019-05-31T06:02:19.334Z,18.22
2019-05-31T06:03:19.342Z,18.25
2019-05-31T06:04:19.337Z,18.22
2019-05-31T06:05:19.570Z,18.23
2019-05-31T06:06:19.328Z,18.28
2019-05-31T06:07:19.560Z,18.29
2019-05-31T06:08:19.570Z,18.34
2019-05-31T06:09:19.572Z,18.31
2019-05-31T06:10:19.329Z,18.29
2019-05-31T06:11:19.563Z,18.34
2019-05-31T06:12:19.567Z,18.31
2019-05-31T06:13:19.569Z,18.31
2019-05-31T06:14:23.954Z,18.31
2019-05-31T06:15:19.637Z,18.37
2019-05-31T06:16:19.576Z,18.43
2019-05-31T06:17:19.439Z,18.41
2019-05-31T06:18:19.324Z,18.4
2019-05-31T06:19:19.330Z,18.38
2019-05-31T06:20:19.567Z,18.38
2019-05-31T06:21:19.110Z,18.49
2019-05-31T06:22:19.079Z,18.53
2019-05-31T06:23:19.081Z,18.56
2019-05-31T06:24:19.568Z,18.43
2019-05-31T06:25:19.586Z,18.55
2019-05-31T06:26:19.575Z,18.41
2019-05-31T06:27:19.064Z,18.47
2019-05-31T06:28:19.323Z,18.56
2019-05-31T06:29:19.320Z,18.59
2019-05-31T06:30:19.325Z,18.59
2019-05-31T06:31:19.089Z,18.71
2019-05-31T06:32:19.320Z,18.63
2019-05-31T06:33:19.567Z,18.75
2019-05-31T06:34:19.062Z,18.81
2019-05-31T06:35:19.571Z,18.83
2019-05-31T06:36:19.104Z,18.95
2019-05-31T06:37:19.575Z,19.07
2019-05-31T06:38:19.708Z,19.07
2019-05-31T06:39:19.321Z,19.15
2019-05-31T06:40:19.585Z,19.15
2019-05-31T06:41:19.586Z,19.21
2019-05-31T06:42:19.313Z,19.29
2019-05-31T06:43:19.322Z,19.3
2019-05-31T06:44:19.570Z,19.39
2019-05-31T06:45:19.318Z,19.36
2019-05-31T06:46:19.597Z,19.39
2019-05-31T06:47:19.488Z,19.49
2019-05-31T06:48:24.125Z,19.47
2019-05-31T06:49:19.574Z,19.47
2019-05-31T06:50:19.329Z,19.69
2019-05-31T06:51:19.085Z,19.71
2019-05-31T06:52:19.322Z,19.69
2019-05-31T06:53:19.325Z,19.73
2019-05-31T06:54:19.334Z,19.73
2019-05-31T06:55:20.399Z,19.84
2019-05-31T06:56:19.334Z,19.76
2019-05-31T06:57:19.586Z,19.79
2019-05-31T06:58:19.708Z,19.69
2019-05-31T06:59:19.321Z,19.84
2019-05-31T07:00:19.331Z,19.81
2019-05-31T07:01:19.578Z,19.84
2019-05-31T07:02:19.341Z,19.92
2019-05-31T07:03:19.576Z,20.1
2019-05-31T07:04:19.589Z,20.18
2019-05-31T07:05:19.335Z,20.21
2019-05-31T07:06:19.334Z,20.22
2019-05-31T07:07:19.590Z,20.29
2019-05-31T07:08:19.097Z,20.36
2019-05-31T07:09:19.727Z,20.41
2019-05-31T07:10:19.358Z,20.51
2019-05-31T07:11:19.355Z,20.62
2019-05-31T07:12:22.347Z,20.58
2019-05-31T07:13:19.345Z,20.52
2019-05-31T07:14:19.603Z,20.65
2019-05-31T07:15:19.361Z,20.66
2019-05-31T07:16:19.601Z,20.74
2019-05-31T07:17:19.357Z,20.85
2019-05-31T07:18:32.263Z,20.88
2019-05-31T07:19:19.374Z,20.93
2019-05-31T07:20:19.360Z,20.96
2019-05-31T07:21:19.359Z,21.07
2019-05-31T07:22:19.365Z,20.99
2019-05-31T07:23:43.284Z,21.05
2019-05-31T07:24:19.635Z,21.02
2019-05-31T07:25:19.370Z,21.05
2019-05-31T07:26:19.662Z,21.02
2019-05-31T07:27:19.640Z,21.07
2019-05-31T07:28:19.122Z,21.25
2019-05-31T07:29:44.490Z,21.2
2019-05-31T07:30:19.644Z,21.3
2019-05-31T07:31:19.662Z,21.35
2019-05-31T07:32:19.636Z,21.48
2019-05-31T07:33:19.132Z,21.57
2019-05-31T07:34:19.638Z,21.62
2019-05-31T07:35:19.137Z,21.77
2019-05-31T07:36:19.644Z,21.95
2019-05-31T07:37:42.035Z,21.96
2019-05-31T07:38:19.399Z,21.99
2019-05-31T07:39:19.682Z,21.85
2019-05-31T07:40:19.420Z,21.67
2019-05-31T07:41:19.399Z,21.57
2019-05-31T07:42:19.770Z,21.58
2019-05-31T07:43:19.420Z,21.69
2019-05-31T07:44:19.413Z,21.69
2019-05-31T07:45:19.498Z,21.76
2019-05-31T07:46:19.665Z,21.79
2019-05-31T07:47:19.459Z,21.99
2019-05-31T07:48:19.834Z,22.08
2019-05-31T07:49:19.452Z,22.1
2019-05-31T07:50:19.172Z,22.22
2019-05-31T07:51:19.687Z,22.32
2019-05-31T07:52:29.158Z,22.36
2019-05-31T07:53:19.442Z,22.51
2019-05-31T07:54:21.671Z,22.6
2019-05-31T07:55:19.513Z,22.6
2019-05-31T07:56:19.702Z,22.73
2019-05-31T07:57:19.444Z,22.69
2019-05-31T07:58:21.931Z,22.6
2019-05-31T07:59:19.452Z,22.41
2019-05-31T08:00:19.457Z,22.28
2019-05-31T08:01:19.704Z,22.18
2019-05-31T08:02:19.727Z,22.11
2019-05-31T08:03:19.471Z,22.06
2019-05-31T08:04:19.747Z,21.99
2019-05-31T08:05:19.726Z,21.93
2019-05-31T08:06:19.508Z,22.1
2019-05-31T08:07:19.738Z,22.11
2019-05-31T08:08:19.619Z,22.15
2019-05-31T08:09:19.733Z,22.15
2019-05-31T08:10:19.534Z,22.06
2019-05-31T08:11:19.750Z,21.99
2019-05-31T08:12:19.501Z,22.1
2019-05-31T08:13:19.767Z,22.13
2019-05-31T08:14:19.771Z,22.02
2019-05-31T08:15:19.253Z,21.89
2019-05-31T08:16:19.760Z,21.83
2019-05-31T08:17:19.509Z,21.82
2019-05-31T08:18:19.773Z,21.77
2019-05-31T08:19:21.040Z,21.67
2019-05-31T08:20:19.774Z,21.82
2019-05-31T08:21:19.515Z,21.8
2019-05-31T08:22:19.873Z,21.91
2019-05-31T08:23:19.769Z,21.96
2019-05-31T08:24:26.072Z,22.1
2019-05-31T08:25:20.373Z,22.23
2019-05-31T08:26:33.841Z,22.39
2019-05-31T08:27:19.529Z,22.35
2019-05-31T08:28:19.391Z,22.36
2019-05-31T08:29:19.817Z,22.47
2019-05-31T08:30:19.792Z,22.47
2019-05-31T08:31:19.563Z,22.65
2019-05-31T08:32:19.813Z,22.83
2019-05-31T08:33:19.546Z,22.87
2019-05-31T08:34:19.807Z,22.99
2019-05-31T08:35:20.032Z,23.05
2019-05-31T08:36:19.829Z,23.03
2019-05-31T08:37:19.822Z,22.94
2019-05-31T08:38:19.855Z,22.78
2019-05-31T08:39:19.845Z,22.63
2019-05-31T08:40:19.830Z,22.63
2019-05-31T08:41:19.584Z,22.48
2019-05-31T08:42:20.063Z,22.44
2019-05-31T08:43:19.588Z,22.44
2019-05-31T08:44:19.584Z,22.35
2019-05-31T08:45:22.195Z,22.48
2019-05-31T08:46:19.356Z,22.54
2019-05-31T08:47:19.843Z,22.53
2019-05-31T08:48:19.846Z,22.6
2019-05-31T08:49:50.638Z,22.55
2019-05-31T08:50:20.015Z,22.55
2019-05-31T08:51:19.364Z,22.57
2019-05-31T08:52:43.354Z,22.78
2019-05-31T08:53:19.870Z,22.73
2019-05-31T08:54:19.627Z,22.72
2019-05-31T08:55:19.869Z,22.62
2019-05-31T08:56:19.886Z,22.76
2019-05-31T08:57:19.633Z,22.88
2019-05-31T08:58:19.897Z,23
2019-05-31T08:59:19.898Z,23.17
2019-05-31T09:00:19.654Z,23.1
2019-05-31T09:01:19.896Z,23.18
2019-05-31T09:02:19.915Z,23.31
2019-05-31T09:03:19.910Z,23.4
2019-05-31T09:04:19.917Z,23.39
2019-05-31T09:05:19.416Z,23.4
2019-05-31T09:06:19.926Z,23.36
2019-05-31T09:07:19.924Z,23.41
2019-05-31T09:08:19.668Z,23.39
2019-05-31T09:09:19.582Z,23.47
2019-05-31T09:10:19.697Z,23.34
2019-05-31T09:11:19.962Z,23.31
2019-05-31T09:12:19.546Z,23.4
2019-05-31T09:13:19.939Z,23.44
2019-05-31T09:14:19.709Z,23.31
2019-05-31T09:15:19.454Z,23.36
2019-05-31T09:16:19.966Z,23.5
2019-05-31T09:17:19.978Z,23.44
2019-05-31T09:18:19.975Z,23.37
2019-05-31T09:19:19.729Z,23.31
2019-05-31T09:20:20.027Z,23.28
2019-05-31T09:21:19.744Z,23.13
2019-05-31T09:22:19.979Z,23.15
2019-05-31T09:23:20.015Z,23.12
2019-05-31T09:24:19.767Z,23.1
2019-05-31T09:25:19.505Z,23.25
2019-05-31T09:26:19.762Z,23.17
2019-05-31T09:27:20.017Z,23.12
2019-05-31T09:28:19.779Z,23.27
2019-05-31T09:29:19.502Z,23.17
2019-05-31T09:30:27.032Z,23.25
2019-05-31T09:31:19.782Z,23.31
2019-05-31T09:32:20.012Z,23.37
2019-05-31T09:33:19.802Z,23.59
2019-05-31T09:34:19.791Z,23.84
2019-05-31T09:35:20.044Z,24.06
2019-05-31T09:36:34.778Z,24.35
2019-05-31T09:37:20.042Z,24.53
2019-05-31T09:38:20.037Z,24.86
2019-05-31T09:39:20.046Z,24.85
2019-05-31T09:40:20.086Z,24.76
2019-05-31T09:41:20.112Z,24.77
2019-05-31T09:42:20.056Z,24.5
2019-05-31T09:43:24.937Z,24.61
2019-05-31T09:44:19.827Z,24.55
2019-05-31T09:45:19.838Z,24.33
2019-05-31T09:46:19.825Z,24.36
2019-05-31T09:47:19.861Z,24.54
2019-05-31T09:48:20.112Z,24.55
2019-05-31T09:49:20.088Z,24.5
2019-05-31T09:50:20.191Z,24.5
2019-05-31T09:51:20.095Z,24.61
2019-05-31T09:52:19.865Z,24.74
2019-05-31T09:53:20.209Z,24.81
2019-05-31T09:54:47.218Z,24.96
2019-05-31T09:55:20.163Z,24.96
2019-05-31T09:56:19.867Z,25.07
2019-05-31T09:57:20.128Z,25.16
2019-05-31T09:58:19.881Z,25.21
2019-05-31T09:59:20.140Z,25.31
2019-05-31T10:00:20.193Z,25.32
2019-05-31T10:01:19.908Z,25.43
2019-05-31T10:02:19.667Z,25.43
2019-05-31T10:03:20.161Z,25.41
2019-05-31T10:04:19.931Z,25.11
2019-05-31T10:05:20.198Z,24.86
2019-05-31T10:06:20.175Z,24.66
2019-05-31T10:07:19.982Z,24.69
2019-05-31T10:08:20.179Z,24.66
2019-05-31T10:09:23.888Z,24.54
2019-05-31T10:10:20.205Z,24.51
2019-05-31T10:11:20.269Z,24.55
2019-05-31T10:12:20.269Z,24.69
2019-05-31T10:13:19.960Z,24.77
2019-05-31T10:14:19.974Z,24.78
2019-05-31T10:15:19.977Z,24.92
2019-05-31T10:16:19.970Z,24.89
2019-05-31T10:17:20.230Z,25.03
2019-05-31T10:18:20.041Z,24.96
2019-05-31T10:19:20.038Z,24.98
2019-05-31T10:20:38.148Z,25.1
2019-05-31T10:21:19.797Z,25.13
2019-05-31T10:22:20.042Z,24.98
2019-05-31T10:23:45.597Z,25.08
2019-05-31T10:24:20.260Z,24.93
2019-05-31T10:25:20.012Z,24.89
2019-05-31T10:26:20.379Z,24.99
2019-05-31T10:27:20.043Z,25.08
2019-05-31T10:28:19.772Z,25.11
2019-05-31T10:29:20.030Z,25.1
2019-05-31T10:30:20.291Z,24.91
2019-05-31T10:31:21.392Z,24.78
2019-05-31T10:32:26.539Z,24.81
2019-05-31T10:33:20.067Z,24.57
2019-05-31T10:34:20.315Z,24.47
2019-05-31T10:35:20.136Z,24.17
2019-05-31T10:36:23.324Z,24.08
2019-05-31T10:37:20.095Z,23.98
2019-05-31T10:38:19.848Z,23.81
2019-05-31T10:39:20.078Z,23.74
2019-05-31T10:40:20.480Z,23.66
2019-05-31T10:41:19.850Z,23.58
2019-05-31T10:42:26.092Z,23.5
2019-05-31T10:43:20.094Z,23.41
2019-05-31T10:44:20.129Z,23.65
2019-05-31T10:45:20.398Z,23.63
2019-05-31T10:46:20.113Z,23.93
2019-05-31T10:47:20.380Z,24.14
2019-05-31T10:48:20.380Z,24.36
2019-05-31T10:49:20.140Z,24.38
2019-05-31T10:50:20.131Z,24.47
2019-05-31T10:51:21.196Z,24.65
2019-05-31T10:52:20.385Z,24.63
2019-05-31T10:53:20.397Z,24.48
2019-05-31T10:54:20.400Z,24.4
2019-05-31T10:55:20.144Z,24.33
2019-05-31T10:56:20.531Z,24.3
2019-05-31T10:57:20.397Z,24.11
2019-05-31T10:58:20.414Z,23.95
2019-05-31T10:59:20.414Z,23.87
2019-05-31T11:00:20.183Z,23.76
2019-05-31T11:01:20.451Z,23.81
2019-05-31T11:02:20.557Z,23.74
2019-05-31T11:03:20.189Z,23.87
2019-05-31T11:04:20.425Z,24.02
2019-05-31T11:05:24.021Z,24.26
2019-05-31T11:06:20.446Z,24.33
2019-05-31T11:07:20.449Z,24.43
2019-05-31T11:08:20.186Z,24.48
2019-05-31T11:09:20.193Z,24.65
2019-05-31T11:10:20.459Z,24.78
2019-05-31T11:11:20.264Z,24.69
2019-05-31T11:12:20.447Z,24.53
2019-05-31T11:13:20.489Z,24.3
2019-05-31T11:14:20.472Z,24.06
2019-05-31T11:15:20.217Z,23.96
2019-05-31T11:16:20.461Z,23.88
2019-05-31T11:17:20.458Z,24.03
2019-05-31T11:18:20.253Z,24.1
2019-05-31T11:19:20.297Z,24.03
2019-05-31T11:20:20.253Z,24.24
2019-05-31T11:21:20.269Z,24.32
2019-05-31T11:22:20.498Z,24.45
2019-05-31T11:23:20.514Z,24.61
2019-05-31T11:24:20.718Z,24.7
2019-05-31T11:25:20.608Z,24.76
2019-05-31T11:26:21.307Z,24.57
2019-05-31T11:27:21.095Z,24.57
2019-05-31T11:28:21.565Z,24.55
2019-05-31T11:29:20.535Z,24.48
2019-05-31T11:30:20.575Z,24.47
2019-05-31T11:31:20.285Z,24.4
2019-05-31T11:32:20.553Z,24.5
2019-05-31T11:33:45.034Z,24.51
2019-05-31T11:34:20.687Z,24.6
2019-05-31T11:35:20.280Z,24.61
2019-05-31T11:36:20.299Z,24.7
2019-05-31T11:37:20.288Z,24.81
2019-05-31T11:38:20.342Z,24.8
2019-05-31T11:39:20.311Z,24.7
2019-05-31T11:40:20.068Z,24.6
2019-05-31T11:41:20.558Z,24.53
2019-05-31T11:42:20.584Z,24.47
2019-05-31T11:43:20.726Z,24.32
2019-05-31T11:44:20.561Z,24.05
2019-05-31T11:45:21.206Z,23.88
2019-05-31T11:46:20.662Z,23.81
2019-05-31T11:47:20.584Z,23.83
2019-05-31T11:48:20.627Z,23.88
2019-05-31T11:49:20.348Z,23.96
2019-05-31T11:50:20.590Z,24.01
2019-05-31T11:51:33.486Z,24.3
2019-05-31T11:52:20.587Z,24.47
2019-05-31T11:53:20.623Z,24.54
2019-05-31T11:54:20.339Z,24.68
2019-05-31T11:55:28.378Z,24.91
2019-05-31T11:56:20.351Z,25.01
2019-05-31T11:57:20.601Z,25.18
2019-05-31T11:58:20.618Z,25.16
2019-05-31T11:59:20.364Z,25.13
2019-05-31T12:00:22.048Z,25.03
2019-05-31T12:01:20.407Z,24.98
2019-05-31T12:02:20.169Z,25.11
2019-05-31T12:03:20.629Z,25.28
2019-05-31T12:04:20.371Z,25.28
2019-05-31T12:05:20.402Z,25.51
2019-05-31T12:06:20.930Z,25.58
2019-05-31T12:07:20.391Z,25.66
2019-05-31T12:08:20.408Z,25.83
2019-05-31T12:09:20.675Z,25.96
2019-05-31T12:10:20.676Z,26.05
2019-05-31T12:11:20.420Z,26.18
2019-05-31T12:12:20.670Z,26.05
2019-05-31T12:13:20.677Z,25.93
2019-05-31T12:14:20.437Z,25.84
2019-05-31T12:15:20.682Z,25.68
2019-05-31T12:16:20.700Z,25.69
2019-05-31T12:17:20.444Z,25.5
2019-05-31T12:18:20.680Z,25.47
2019-05-31T12:19:20.444Z,25.41
2019-05-31T12:20:22.099Z,25.36
2019-05-31T12:21:20.472Z,25.46
2019-05-31T12:22:20.489Z,25.58
2019-05-31T12:23:20.459Z,25.63
2019-05-31T12:24:20.486Z,25.8
2019-05-31T12:25:20.607Z,25.9
2019-05-31T12:26:20.244Z,25.95
2019-05-31T12:27:20.771Z,25.88
2019-05-31T12:28:20.489Z,25.8
2019-05-31T12:29:20.503Z,25.88
2019-05-31T12:30:27.509Z,25.81
2019-05-31T12:31:20.548Z,25.75
2019-05-31T12:32:20.755Z,25.63
2019-05-31T12:33:20.528Z,25.47
2019-05-31T12:34:20.281Z,25.54
2019-05-31T12:35:20.277Z,25.55
2019-05-31T12:36:23.552Z,25.5
2019-05-31T12:37:20.777Z,25.6
2019-05-31T12:38:20.780Z,25.58
2019-05-31T12:39:20.848Z,25.55
2019-05-31T12:40:20.574Z,25.53
2019-05-31T12:41:20.394Z,25.65
2019-05-31T12:42:20.547Z,25.78
2019-05-31T12:43:20.844Z,25.85
2019-05-31T12:44:20.555Z,25.73
2019-05-31T12:45:21.241Z,25.66
2019-05-31T12:46:20.561Z,25.5
2019-05-31T12:47:20.845Z,25.51
2019-05-31T12:48:20.561Z,25.36
2019-05-31T12:49:20.854Z,25.31
2019-05-31T12:50:28.295Z,25.23
2019-05-31T12:51:31.242Z,25.26
2019-05-31T12:52:20.847Z,25.35
2019-05-31T12:53:20.588Z,25.29
2019-05-31T12:54:20.590Z,25.46
2019-05-31T12:55:20.933Z,25.59